createdAt,value
2022-09-11T00:01:28.448Z,21.10
2022-09-11T00:03:56.438Z,21.20
2022-09-11T00:06:29.873Z,21.20
2022-09-11T00:09:01.161Z,21.10
2022-09-11T00:11:40.434Z,21.10
2022-09-11T00:14:08.177Z,21.00
2022-09-11T00:16:39.191Z,21.00
2022-09-11T00:19:08.816Z,20.90
2022-09-11T00:21:36.463Z,21.00
2022-09-11T00:24:04.927Z,20.90
2022-09-11T00:26:32.409Z,20.90
2022-09-11T00:29:01.873Z,20.90
2022-09-11T00:31:30.146Z,20.90
2022-09-11T00:33:57.634Z,21.00
2022-09-11T00:36:27.655Z,20.90
2022-09-11T00:38:56.044Z,21.00
2022-09-11T00:41:29.591Z,21.00
2022-09-11T00:44:07.563Z,21.00
2022-09-11T00:46:42.419Z,21.00
2022-09-11T00:49:12.474Z,21.00
2022-09-11T00:51:41.127Z,21.00
2022-09-11T00:54:12.551Z,21.00
2022-09-11T00:56:41.929Z,21.00
2022-09-11T00:59:09.696Z,21.00
2022-09-11T01:01:37.278Z,21.00
2022-09-11T01:04:06.692Z,21.10
2022-09-11T01:06:34.033Z,21.10
2022-09-11T01:09:01.095Z,21.10
2022-09-11T01:11:46.080Z,21.10
2022-09-11T01:14:22.404Z,21.20
2022-09-11T01:17:10.454Z,21.10
2022-09-11T01:19:59.192Z,21.20
2022-09-11T01:22:26.182Z,21.10
2022-09-11T01:25:15.630Z,21.10
2022-09-11T01:27:50.733Z,21.10
2022-09-11T01:30:40.944Z,21.00
2022-09-11T01:33:24.400Z,21.00
2022-09-11T01:36:14.080Z,20.90
2022-09-11T01:39:02.305Z,20.90
2022-09-11T01:41:46.052Z,20.80
2022-09-11T01:44:17.158Z,20.70
2022-09-11T01:46:51.217Z,20.60
2022-09-11T01:49:38.849Z,20.60
2022-09-11T01:52:19.420Z,20.60
2022-09-11T01:54:56.156Z,20.60
2022-09-11T01:57:30.953Z,20.50
2022-09-11T02:00:02.606Z,20.50
2022-09-11T02:02:38.411Z,20.50
2022-09-11T02:05:05.483Z,20.40
2022-09-11T02:07:39.660Z,20.40
2022-09-11T02:10:14.523Z,20.40
2022-09-11T02:12:46.548Z,20.40
2022-09-11T02:15:15.953Z,20.50
2022-09-11T02:18:09.624Z,20.50
2022-09-11T02:20:36.664Z,20.60
2022-09-11T02:23:03.783Z,20.60
2022-09-11T02:25:30.721Z,20.60
2022-09-11T02:27:58.988Z,20.70
2022-09-11T02:30:26.021Z,20.80
2022-09-11T02:32:55.270Z,20.80
2022-09-11T02:35:27.831Z,20.70
2022-09-11T02:38:04.391Z,20.60
2022-09-11T02:40:50.229Z,20.50
2022-09-11T02:43:17.282Z,20.40
2022-09-11T02:45:57.491Z,20.20
2022-09-11T02:48:40.345Z,19.90
2022-09-11T02:51:34.658Z,19.70
2022-09-11T02:54:11.823Z,19.50
2022-09-11T02:57:03.066Z,19.30
2022-09-11T02:59:36.345Z,19.10
2022-09-11T03:02:04.368Z,19.00
2022-09-11T03:04:31.437Z,19.00
2022-09-11T03:06:59.198Z,18.90
2022-09-11T03:09:26.254Z,18.80
2022-09-11T03:11:59.026Z,18.70
2022-09-11T03:14:25.915Z,18.70
2022-09-11T03:16:53.171Z,18.60
2022-09-11T03:19:20.127Z,18.60
2022-09-11T03:21:47.082Z,18.60
2022-09-11T03:24:15.719Z,18.60
2022-09-11T03:26:43.768Z,18.60
2022-09-11T03:29:10.833Z,18.60
2022-09-11T03:31:39.350Z,18.60
2022-09-11T03:34:07.429Z,18.60
2022-09-11T03:36:34.518Z,18.60
2022-09-11T03:39:02.298Z,18.60
2022-09-11T03:41:30.882Z,18.50
2022-09-11T03:43:57.837Z,18.50
2022-09-11T03:46:25.623Z,18.50
2022-09-11T03:48:53.313Z,18.50
2022-09-11T03:51:23.620Z,18.40
2022-09-11T03:53:50.570Z,18.40
2022-09-11T03:56:17.825Z,18.30
2022-09-11T03:58:48.332Z,18.20
2022-09-11T04:01:18.916Z,18.10
2022-09-11T04:03:46.505Z,18.00
2022-09-11T04:06:21.806Z,17.90
2022-09-11T04:08:49.572Z,17.90
2022-09-11T04:11:16.975Z,17.80
2022-09-11T04:13:44.634Z,17.70
2022-09-11T04:16:17.398Z,17.70
2022-09-11T04:18:47.125Z,17.70
2022-09-11T04:21:17.803Z,17.70
2022-09-11T04:24:00.355Z,17.60
2022-09-11T04:26:31.449Z,17.60
2022-09-11T04:29:17.822Z,17.50
2022-09-11T04:31:46.292Z,17.50
2022-09-11T04:34:15.056Z,17.40
2022-09-11T04:36:41.955Z,17.30
2022-09-11T04:39:13.435Z,17.30
2022-09-11T04:41:41.237Z,17.30
2022-09-11T04:44:09.013Z,17.20
2022-09-11T04:46:42.888Z,17.10
2022-09-11T04:49:11.504Z,17.10
2022-09-11T04:51:41.093Z,17.10
2022-09-11T04:54:18.145Z,17.10
2022-09-11T04:56:46.072Z,17.10
2022-09-11T04:59:17.973Z,17.10
2022-09-11T05:02:02.343Z,17.10
2022-09-11T05:04:31.406Z,17.10
2022-09-11T05:06:59.640Z,17.10
2022-09-11T05:09:27.766Z,17.00
2022-09-11T05:11:57.037Z,17.10
2022-09-11T05:14:27.167Z,17.10
2022-09-11T05:16:55.089Z,17.00
2022-09-11T05:19:25.706Z,17.10
2022-09-11T05:21:52.870Z,17.00
2022-09-11T05:24:20.402Z,17.10
2022-09-11T05:26:47.598Z,17.20
2022-09-11T05:29:16.243Z,17.10
2022-09-11T05:32:00.140Z,17.20
2022-09-11T05:34:28.944Z,17.30
2022-09-11T05:36:57.475Z,17.90
2022-09-11T05:39:27.283Z,19.10
2022-09-11T05:41:55.484Z,20.20
2022-09-11T05:44:25.511Z,21.10
2022-09-11T05:46:52.554Z,21.80
2022-09-11T05:49:19.488Z,22.30
2022-09-11T05:51:47.039Z,22.70
2022-09-11T05:54:13.940Z,23.00
2022-09-11T05:56:41.572Z,23.10
2022-09-11T05:59:14.729Z,23.20
2022-09-11T06:01:43.763Z,23.10
2022-09-11T06:04:20.710Z,23.10
2022-09-11T06:06:50.752Z,23.40
2022-09-11T06:09:18.840Z,23.80
2022-09-11T06:11:45.872Z,24.60
2022-09-11T06:14:13.506Z,25.40
2022-09-11T06:16:42.744Z,26.30
2022-09-11T06:19:13.053Z,27.00
2022-09-11T06:21:40.916Z,27.60
2022-09-11T06:24:24.453Z,28.20
2022-09-11T06:26:51.609Z,28.70
2022-09-11T06:29:19.569Z,29.10
2022-09-11T06:31:51.404Z,29.50
2022-09-11T06:34:21.880Z,30.00
2022-09-11T06:36:52.071Z,30.40
2022-09-11T06:39:20.531Z,30.80
2022-09-11T06:41:47.720Z,31.20
2022-09-11T06:44:16.020Z,31.60
2022-09-11T06:46:42.992Z,31.80
2022-09-11T06:49:12.049Z,32.10
2022-09-11T06:51:57.965Z,32.40
2022-09-11T06:54:25.946Z,32.60
2022-09-11T06:56:54.003Z,33.10
2022-09-11T06:59:23.919Z,33.40
2022-09-11T07:01:51.884Z,33.50
2022-09-11T07:04:19.564Z,33.60
2022-09-11T07:06:50.335Z,34.00
2022-09-11T07:09:17.949Z,34.60
2022-09-11T07:11:51.348Z,34.90
2022-09-11T07:14:21.485Z,35.20
2022-09-11T07:16:52.943Z,35.60
2022-09-11T07:19:20.194Z,36.20
2022-09-11T07:21:47.233Z,36.60
2022-09-11T07:24:14.332Z,37.00
2022-09-11T07:26:44.046Z,37.30
2022-09-11T07:29:18.051Z,37.40
2022-09-11T07:31:46.576Z,37.50
2022-09-11T07:34:15.475Z,37.80
2022-09-11T07:36:44.634Z,38.20
2022-09-11T07:39:12.638Z,38.50
2022-09-11T07:41:55.151Z,38.80
2022-09-11T07:44:27.375Z,39.00
2022-09-11T07:46:55.886Z,39.20
2022-09-11T07:49:23.957Z,39.50
2022-09-11T07:51:52.423Z,40.00
2022-09-11T07:54:29.078Z,40.30
2022-09-11T07:56:58.127Z,40.40
2022-09-11T07:59:25.342Z,40.30
2022-09-11T08:01:55.682Z,40.30
2022-09-11T08:04:23.531Z,40.20
2022-09-11T08:06:51.345Z,40.00
2022-09-11T08:09:27.563Z,39.80
2022-09-11T08:11:58.657Z,39.80
2022-09-11T08:14:27.448Z,39.60
2022-09-11T08:16:59.970Z,39.50
2022-09-11T08:19:29.196Z,39.30
2022-09-11T08:22:00.411Z,39.40
2022-09-11T08:24:31.008Z,39.60
2022-09-11T08:27:00.459Z,39.20
2022-09-11T08:29:29.486Z,38.90
2022-09-11T08:32:01.637Z,38.60
2022-09-11T08:34:30.487Z,38.40
2022-09-11T08:36:57.964Z,38.70
2022-09-11T08:39:27.160Z,39.20
2022-09-11T08:42:03.764Z,39.50
2022-09-11T08:44:48.723Z,39.60
2022-09-11T08:47:27.379Z,39.70
2022-09-11T08:50:02.920Z,39.60
2022-09-11T08:52:33.325Z,39.40
2022-09-11T08:55:02.347Z,39.10
2022-09-11T08:57:37.854Z,39.20
2022-09-11T09:00:21.890Z,39.40
2022-09-11T09:03:11.086Z,39.50
2022-09-11T09:05:47.568Z,39.90
2022-09-11T09:08:20.642Z,39.90
2022-09-11T09:10:52.747Z,39.70
2022-09-11T09:13:51.832Z,39.80
2022-09-11T09:16:35.066Z,39.90
2022-09-11T09:19:14.811Z,40.20
2022-09-11T09:22:46.338Z,40.10
2022-09-11T09:25:19.909Z,40.00
2022-09-11T09:27:49.601Z,39.90
2022-09-11T09:30:24.518Z,40.10
2022-09-11T09:33:20.483Z,40.50
2022-09-11T09:35:48.357Z,40.80
2022-09-11T09:38:26.879Z,41.10
2022-09-11T09:41:20.060Z,41.10
2022-09-11T09:44:19.422Z,41.20
2022-09-11T09:46:55.633Z,40.90
2022-09-11T09:49:33.177Z,40.80
2022-09-11T09:52:10.208Z,40.90
2022-09-11T09:54:37.631Z,41.10
2022-09-11T09:57:13.789Z,40.80
2022-09-11T10:00:02.955Z,40.20
2022-09-11T10:02:54.015Z,39.90
2022-09-11T10:05:43.824Z,40.20
2022-09-11T10:08:33.983Z,39.50
2022-09-11T10:11:03.950Z,39.20
2022-09-11T10:13:39.900Z,39.50
2022-09-11T10:16:20.860Z,39.90
2022-09-11T10:18:48.533Z,40.10
2022-09-11T10:21:35.807Z,40.10
2022-09-11T10:24:19.567Z,40.50
2022-09-11T10:26:51.449Z,40.50
2022-09-11T10:29:19.827Z,39.70
2022-09-11T10:31:55.284Z,39.40
2022-09-11T10:34:28.051Z,39.20
2022-09-11T10:37:00.745Z,39.40
2022-09-11T10:39:30.321Z,40.00
2022-09-11T10:41:59.830Z,40.30
2022-09-11T10:44:28.613Z,40.40
2022-09-11T10:47:30.958Z,40.00
2022-09-11T10:50:16.979Z,40.00
2022-09-11T10:53:11.190Z,40.00
2022-09-11T10:55:42.642Z,40.30
2022-09-11T10:58:16.024Z,39.80
2022-09-11T11:00:43.009Z,39.20
2022-09-11T11:03:23.964Z,39.20
2022-09-11T11:05:53.700Z,39.40
2022-09-11T11:08:57.387Z,39.80
2022-09-11T11:11:42.580Z,40.00
2022-09-11T11:14:31.840Z,39.80
2022-09-11T11:17:19.684Z,39.80
2022-09-11T11:19:52.230Z,40.00
2022-09-11T11:22:49.567Z,40.10
2022-09-11T11:25:54.270Z,40.30
2022-09-11T11:28:36.056Z,40.40
2022-09-11T11:31:06.132Z,40.20
2022-09-11T11:33:53.955Z,39.60
2022-09-11T11:36:43.413Z,39.50
2022-09-11T11:39:36.578Z,39.80
2022-09-11T11:42:11.119Z,40.00
2022-09-11T11:44:48.334Z,40.20
2022-09-11T11:47:18.107Z,40.20
2022-09-11T11:50:00.755Z,40.50
2022-09-11T11:52:38.414Z,40.40
2022-09-11T11:55:18.224Z,39.70
2022-09-11T11:58:09.914Z,39.10
2022-09-11T12:00:54.725Z,38.80
2022-09-11T12:03:30.355Z,39.00
2022-09-11T12:05:57.388Z,38.60
2022-09-11T12:08:24.555Z,38.20
2022-09-11T12:11:06.388Z,38.20
2022-09-11T12:13:37.028Z,38.30
2022-09-11T12:16:35.405Z,38.30
2022-09-11T12:19:19.926Z,39.00
2022-09-11T12:21:53.055Z,39.20
2022-09-11T12:24:44.427Z,39.40
2022-09-11T12:27:36.433Z,39.50
2022-09-11T12:30:18.417Z,39.50
2022-09-11T12:32:52.328Z,39.70
2022-09-11T12:35:21.719Z,39.50
2022-09-11T12:37:56.321Z,39.30
2022-09-11T12:40:28.603Z,38.30
2022-09-11T12:42:58.690Z,37.50
2022-09-11T12:45:35.807Z,36.30
2022-09-11T12:48:26.999Z,35.60
2022-09-11T12:50:56.845Z,35.80
2022-09-11T12:53:31.423Z,35.90
2022-09-11T12:56:03.677Z,36.30
2022-09-11T12:58:38.972Z,36.40
2022-09-11T13:01:13.614Z,36.20
2022-09-11T13:04:12.264Z,36.10
2022-09-11T13:06:50.415Z,36.50
2022-09-11T13:09:32.206Z,36.60
2022-09-11T13:12:40.955Z,36.30
2022-09-11T13:15:36.436Z,36.00
2022-09-11T13:18:29.842Z,36.30
2022-09-11T13:21:00.603Z,37.00
2022-09-11T13:23:29.044Z,37.10
2022-09-11T13:25:58.172Z,37.00
2022-09-11T13:28:27.766Z,37.30
2022-09-11T13:31:04.162Z,37.30
2022-09-11T13:33:32.401Z,37.10
2022-09-11T13:36:06.814Z,37.30
2022-09-11T13:38:36.575Z,37.10
2022-09-11T13:41:12.805Z,36.80
2022-09-11T13:43:49.187Z,36.90
2022-09-11T13:46:16.174Z,36.50
2022-09-11T13:48:44.935Z,36.50
2022-09-11T13:51:26.953Z,36.90
2022-09-11T13:54:15.779Z,37.10
2022-09-11T13:56:55.048Z,36.50
2022-09-11T13:59:25.556Z,36.10
2022-09-11T14:02:00.886Z,36.10
2022-09-11T14:04:32.825Z,36.20
2022-09-11T14:06:59.953Z,36.30
2022-09-11T14:09:26.879Z,36.30
2022-09-11T14:11:53.924Z,36.30
2022-09-11T14:14:28.186Z,36.30
2022-09-11T14:16:59.211Z,36.40
2022-09-11T14:19:29.984Z,36.70
2022-09-11T14:21:57.432Z,36.90
2022-09-11T14:24:33.351Z,37.30
2022-09-11T14:27:02.597Z,37.50
2022-09-11T14:29:36.328Z,37.10
2022-09-11T14:32:29.771Z,36.70
2022-09-11T14:34:56.972Z,36.00
2022-09-11T14:37:26.135Z,35.60
2022-09-11T14:39:58.163Z,35.80
2022-09-11T14:42:30.873Z,36.10
2022-09-11T14:44:58.259Z,36.40
2022-09-11T14:47:29.336Z,36.50
2022-09-11T14:49:57.536Z,36.60
2022-09-11T14:52:27.908Z,36.70
2022-09-11T14:54:56.563Z,36.80
2022-09-11T14:57:26.403Z,36.80
2022-09-11T14:59:53.380Z,37.00
2022-09-11T15:02:25.822Z,37.10
2022-09-11T15:04:54.523Z,37.00
2022-09-11T15:07:24.794Z,36.60
2022-09-11T15:09:53.507Z,36.50
2022-09-11T15:12:21.714Z,36.40
2022-09-11T15:14:56.846Z,36.30
2022-09-11T15:17:25.450Z,36.20
2022-09-11T15:19:53.485Z,36.00
2022-09-11T15:22:20.507Z,35.80
2022-09-11T15:24:49.904Z,35.70
2022-09-11T15:27:19.146Z,35.60
2022-09-11T15:29:46.322Z,35.30
2022-09-11T15:32:14.483Z,35.20
2022-09-11T15:34:43.922Z,35.10
2022-09-11T15:37:11.707Z,34.90
2022-09-11T15:39:39.163Z,34.50
2022-09-11T15:42:07.643Z,33.90
2022-09-11T15:44:36.247Z,33.40
2022-09-11T15:47:06.988Z,33.00
2022-09-11T15:49:40.541Z,32.60
2022-09-11T15:52:08.037Z,32.30
2022-09-11T15:54:35.159Z,31.90
2022-09-11T15:57:02.201Z,31.60
2022-09-11T15:59:29.372Z,31.20
2022-09-11T16:01:56.521Z,30.90
2022-09-11T16:04:28.058Z,30.50
2022-09-11T16:06:55.468Z,30.20
2022-09-11T16:09:28.289Z,29.90
2022-09-11T16:11:56.072Z,29.60
2022-09-11T16:14:28.540Z,29.30
2022-09-11T16:16:57.141Z,28.90
2022-09-11T16:19:27.979Z,28.50
2022-09-11T16:21:57.000Z,28.20
2022-09-11T16:24:29.711Z,27.80
2022-09-11T16:26:58.142Z,27.60
2022-09-11T16:29:44.002Z,27.40
2022-09-11T16:32:28.216Z,27.20
2022-09-11T16:34:57.855Z,27.00
2022-09-11T16:37:25.976Z,26.80
2022-09-11T16:39:53.111Z,26.60
2022-09-11T16:42:21.333Z,26.40
2022-09-11T16:44:49.767Z,26.30
2022-09-11T16:47:17.296Z,26.10
2022-09-11T16:50:06.008Z,26.00
2022-09-11T16:52:32.360Z,25.90
2022-09-11T16:54:59.612Z,25.70
2022-09-11T16:57:27.491Z,25.60
2022-09-11T16:59:54.768Z,25.40
2022-09-11T17:02:21.780Z,25.30
2022-09-11T17:04:48.772Z,25.20
2022-09-11T17:07:15.787Z,25.10
2022-09-11T17:09:43.827Z,25.00
2022-09-11T17:12:11.568Z,24.90
2022-09-11T17:14:38.976Z,24.70
2022-09-11T17:17:05.944Z,24.60
2022-09-11T17:19:32.873Z,24.50
2022-09-11T17:22:00.117Z,24.40
2022-09-11T17:24:27.165Z,24.30
2022-09-11T17:26:56.087Z,24.20
2022-09-11T17:29:23.049Z,24.10
2022-09-11T17:32:01.094Z,24.00
2022-09-11T17:34:37.426Z,23.90
2022-09-11T17:37:04.749Z,23.80
2022-09-11T17:39:31.791Z,23.70
2022-09-11T17:41:58.870Z,23.60
2022-09-11T17:44:25.888Z,23.50
2022-09-11T17:46:52.918Z,23.40
2022-09-11T17:49:20.982Z,23.30
2022-09-11T17:51:49.103Z,23.20
2022-09-11T17:54:16.889Z,23.10
2022-09-11T17:56:44.817Z,23.00
2022-09-11T17:59:12.111Z,23.00
2022-09-11T18:01:39.111Z,22.90
2022-09-11T18:04:06.104Z,22.80
2022-09-11T18:06:36.277Z,22.80
2022-09-11T18:09:15.184Z,22.70
2022-09-11T18:11:47.723Z,22.70
2022-09-11T18:14:15.507Z,22.60
2022-09-11T18:16:47.151Z,22.50
2022-09-11T18:19:16.172Z,22.50
2022-09-11T18:21:46.671Z,22.40
2022-09-11T18:24:20.735Z,22.40
2022-09-11T18:26:57.288Z,22.30
2022-09-11T18:29:27.114Z,22.30
2022-09-11T18:31:54.705Z,22.20
2022-09-11T18:34:26.723Z,22.10
2022-09-11T18:36:53.874Z,22.10
2022-09-11T18:39:21.615Z,22.00
2022-09-11T18:41:50.138Z,21.90
2022-09-11T18:44:20.365Z,21.90
2022-09-11T18:46:53.153Z,21.80
2022-09-11T18:49:20.911Z,21.80
2022-09-11T18:51:47.956Z,21.70
2022-09-11T18:54:18.163Z,21.70
2022-09-11T18:56:45.594Z,21.60
2022-09-11T18:59:14.080Z,21.60
2022-09-11T19:01:41.535Z,21.50
2022-09-11T19:04:10.599Z,21.40
2022-09-11T19:06:41.017Z,21.40
2022-09-11T19:09:13.316Z,21.30
2022-09-11T19:11:40.521Z,21.30
2022-09-11T19:14:10.133Z,21.20
2022-09-11T19:16:38.720Z,21.20
2022-09-11T19:19:07.572Z,21.10
2022-09-11T19:21:35.129Z,21.10
2022-09-11T19:24:02.737Z,21.10
2022-09-11T19:26:32.628Z,21.10
2022-09-11T19:29:00.467Z,21.10
2022-09-11T19:31:29.835Z,21.00
2022-09-11T19:34:00.236Z,21.00
2022-09-11T19:36:30.017Z,21.00
2022-09-11T19:39:00.544Z,20.90
2022-09-11T19:41:34.019Z,20.90
2022-09-11T19:44:03.524Z,20.90
2022-09-11T19:46:32.034Z,20.80
2022-09-11T19:49:02.798Z,20.80
2022-09-11T19:51:32.041Z,20.70
2022-09-11T19:54:00.645Z,20.70
2022-09-11T19:56:28.702Z,20.60
2022-09-11T19:58:56.214Z,20.60
2022-09-11T20:01:25.356Z,20.60
2022-09-11T20:03:53.833Z,20.50
2022-09-11T20:06:24.386Z,20.50
2022-09-11T20:09:07.716Z,20.50
2022-09-11T20:11:39.645Z,20.50
2022-09-11T20:14:06.628Z,20.40
2022-09-11T20:16:33.816Z,20.40
2022-09-11T20:19:06.243Z,20.40
2022-09-11T20:21:35.521Z,20.40
2022-09-11T20:24:03.295Z,20.30
2022-09-11T20:26:32.450Z,20.30
2022-09-11T20:29:06.906Z,20.30
2022-09-11T20:31:46.088Z,20.30
2022-09-11T20:34:14.920Z,20.30
2022-09-11T20:36:42.197Z,20.20
2022-09-11T20:39:12.598Z,20.20
2022-09-11T20:41:39.706Z,20.20
2022-09-11T20:44:06.723Z,20.10
2022-09-11T20:46:33.818Z,20.10
2022-09-11T20:49:01.167Z,20.10
2022-09-11T20:51:28.494Z,20.10
2022-09-11T20:53:56.013Z,20.00
2022-09-11T20:56:23.867Z,20.00
2022-09-11T20:58:51.983Z,19.90
2022-09-11T21:01:23.683Z,19.90
2022-09-11T21:03:56.641Z,19.90
2022-09-11T21:06:28.286Z,19.90
2022-09-11T21:09:00.736Z,19.90
2022-09-11T21:11:29.673Z,19.80
2022-09-11T21:13:56.862Z,19.80
2022-09-11T21:16:23.877Z,19.80
2022-09-11T21:18:53.045Z,19.70
2022-09-11T21:21:21.150Z,19.80
2022-09-11T21:23:48.721Z,19.70
2022-09-11T21:26:17.332Z,19.70
2022-09-11T21:28:44.877Z,19.70
2022-09-11T21:31:12.342Z,19.70
2022-09-11T21:33:39.898Z,19.70
2022-09-11T21:36:07.434Z,19.60
2022-09-11T21:38:34.799Z,19.60
2022-09-11T21:41:04.283Z,19.60
2022-09-11T21:43:31.562Z,19.50
2022-09-11T21:45:58.644Z,19.50
2022-09-11T21:48:25.690Z,19.50
2022-09-11T21:50:52.949Z,19.50
2022-09-11T21:53:20.670Z,19.50
2022-09-11T21:55:48.739Z,19.50
2022-09-11T21:58:19.309Z,19.50
2022-09-11T22:00:50.095Z,19.50
2022-09-11T22:03:18.807Z,19.50
2022-09-11T22:05:48.752Z,19.40
2022-09-11T22:08:17.815Z,19.40
2022-09-11T22:10:47.023Z,19.40
2022-09-11T22:13:14.371Z,19.30
2022-09-11T22:15:43.085Z,19.30
2022-09-11T22:18:10.316Z,19.30
2022-09-11T22:20:38.045Z,19.30
2022-09-11T22:23:05.544Z,19.30
2022-09-11T22:25:33.853Z,19.20
2022-09-11T22:28:00.785Z,19.30
2022-09-11T22:30:30.132Z,19.20
2022-09-11T22:32:57.069Z,19.30
2022-09-11T22:35:24.151Z,19.20
2022-09-11T22:37:51.106Z,19.20
2022-09-11T22:40:18.177Z,19.30
2022-09-11T22:42:45.200Z,19.30
2022-09-11T22:45:12.538Z,19.30
2022-09-11T22:47:39.440Z,19.30
2022-09-11T22:50:06.851Z,19.30
2022-09-11T22:52:33.849Z,19.30
2022-09-11T22:55:00.750Z,19.20
2022-09-11T22:57:29.185Z,19.20
2022-09-11T22:59:56.317Z,19.20
2022-09-11T23:02:27.416Z,19.20
2022-09-11T23:05:12.790Z,19.20
2022-09-11T23:07:39.801Z,19.20
2022-09-11T23:10:07.443Z,19.20
2022-09-11T23:12:34.356Z,19.20
2022-09-11T23:15:03.047Z,19.10
2022-09-11T23:17:30.089Z,19.10
2022-09-11T23:19:56.999Z,19.10
2022-09-11T23:22:24.120Z,19.10
2022-09-11T23:24:51.002Z,19.10
2022-09-11T23:27:17.969Z,19.10
2022-09-11T23:29:44.882Z,19.00
2022-09-11T23:32:11.775Z,19.00
2022-09-11T23:34:38.859Z,19.10
2022-09-11T23:37:05.811Z,19.00
2022-09-11T23:39:32.808Z,19.10
2022-09-11T23:41:59.797Z,19.00
2022-09-11T23:44:26.668Z,19.00
2022-09-11T23:46:53.603Z,19.00
2022-09-11T23:49:20.567Z,19.00
2022-09-11T23:51:49.135Z,19.00
2022-09-11T23:54:16.391Z,19.00
2022-09-11T23:56:43.384Z,19.00
2022-09-11T23:59:10.333Z,19.00
